Time;durP1;ratioP1;P1;durP2;ratioP2;P2;SDS_P1;SDS_P2;PMS_P1;PMS_P2;Temp;Humidity;BMP_temperature;BMP_pressure;BME280_temperature;BME280_humidity;BME280_pressure;Samples;Min_cycle;Max_cycle;Signal;HPM_P1;HPM_P2
2023/11/12 00:01:44;;;;;;;56.53;31.05;;;3.90;99.90;;;;;;7370930;19;20019;-81
2023/11/12 00:04:26;;;;;;;56.30;30.65;;;3.90;99.90;;;;;;7373267;19;20789;-82
2023/11/12 00:07:13;;;;;;;65.05;33.90;;;4.00;99.90;;;;;;7371656;19;20019;-82
2023/11/12 00:09:59;;;;;;;55.25;34.67;;;4.00;99.90;;;;;;7371536;19;20042;-83
2023/11/12 00:12:49;;;;;;;57.53;35.03;;;4.00;99.90;;;;;;7373202;19;20498;-82
2023/11/12 00:15:35;;;;;;;54.92;33.95;;;4.00;99.90;;;;;;7370729;19;20018;-82
2023/11/12 00:18:26;;;;;;;53.60;33.15;;;4.00;99.90;;;;;;7370355;19;20019;-82
2023/11/12 00:21:12;;;;;;;53.92;34.00;;;4.00;99.90;;;;;;7370745;19;20025;-82
2023/11/12 00:23:58;;;;;;;66.53;36.33;;;4.00;99.90;;;;;;7374026;19;20805;-82
2023/11/12 00:26:44;;;;;;;55.80;35.08;;;4.10;99.90;;;;;;7370022;19;20023;-82
2023/11/12 00:29:33;;;;;;;66.57;37.13;;;4.10;99.90;;;;;;7369114;19;20018;-81
2023/11/12 00:32:23;;;;;;;59.40;34.45;;;4.10;99.90;;;;;;7374913;19;20022;-82
2023/11/12 00:35:11;;;;;;;45.78;31.88;;;4.10;99.90;;;;;;7373499;19;20419;-82
2023/11/12 00:38:01;;;;;;;61.47;36.55;;;4.10;99.90;;;;;;7370387;19;20014;-82
2023/11/12 00:40:50;;;;;;;65.78;39.08;;;4.20;99.90;;;;;;7366967;19;20111;-82
2023/11/12 00:43:36;;;;;;;57.60;36.50;;;4.20;99.90;;;;;;7369996;19;20082;-83
2023/11/12 00:46:24;;;;;;;54.47;36.35;;;4.30;99.90;;;;;;7369735;19;20019;-82
2023/11/12 00:49:10;;;;;;;74.20;40.33;;;4.40;99.90;;;;;;7368357;19;20019;-82
2023/11/12 00:51:56;;;;;;;71.03;39.80;;;4.40;99.90;;;;;;7370209;19;20022;-82
2023/11/12 00:54:42;;;;;;;96.95;43.55;;;4.50;99.90;;;;;;7371308;19;20022;-82
2023/11/12 00:57:29;;;;;;;57.80;34.55;;;4.60;99.90;;;;;;7370238;19;20015;-82
2023/11/12 01:00:16;;;;;;;73.60;38.92;;;4.60;99.90;;;;;;7368042;19;20522;-82
2023/11/12 01:03:03;;;;;;;64.95;36.88;;;4.60;99.90;;;;;;7370903;19;20018;-82
2023/11/12 01:05:52;;;;;;;68.10;37.05;;;4.60;99.90;;;;;;7365861;19;20098;-82
2023/11/12 01:08:39;;;;;;;57.58;37.55;;;4.60;99.90;;;;;;7371230;19;20149;-83
2023/11/12 01:11:29;;;;;;;60.60;36.55;;;4.70;99.90;;;;;;7371128;19;20046;-81
2023/11/12 01:13:55;;;;;;;64.82;37.13;;;4.70;99.90;;;;;;7371478;19;20061;-82
2023/11/12 01:16:22;;;;;;;67.65;38.38;;;4.80;99.90;;;;;;7371932;19;20022;-82
2023/11/12 01:18:50;;;;;;;63.92;37.55;;;4.80;99.90;;;;;;7367837;19;20364;-83
2023/11/12 01:21:17;;;;;;;67.00;38.95;;;4.80;99.90;;;;;;7371227;19;20019;-82
2023/11/12 01:23:44;;;;;;;65.20;38.70;;;4.90;99.90;;;;;;7368027;19;20014;-82
2023/11/12 01:26:10;;;;;;;56.78;37.33;;;5.00;99.90;;;;;;7366964;19;20019;-82
2023/11/12 01:28:36;;;;;;;61.70;36.03;;;5.00;99.90;;;;;;7368392;19;20015;-83
2023/11/12 01:31:03;;;;;;;64.53;38.15;;;5.10;99.90;;;;;;7368664;19;20029;-81
2023/11/12 01:33:29;;;;;;;66.57;39.25;;;5.10;99.90;;;;;;7370616;19;20022;-82
2023/11/12 01:35:56;;;;;;;71.57;40.65;;;5.10;99.90;;;;;;7370992;19;20022;-82
2023/11/12 01:38:22;;;;;;;67.90;40.30;;;5.10;99.90;;;;;;7366915;19;20018;-82
2023/11/12 01:40:54;;;;;;;72.13;39.92;;;5.20;99.90;;;;;;7367241;19;20046;-82
2023/11/12 01:43:21;;;;;;;59.50;36.10;;;5.10;99.90;;;;;;7368532;19;20045;-82
2023/11/12 01:45:47;;;;;;;59.08;35.58;;;5.10;99.90;;;;;;7370991;19;20014;-82
2023/11/12 01:48:15;;;;;;;53.88;34.45;;;5.20;99.90;;;;;;7370820;19;20783;-82
2023/11/12 01:50:44;;;;;;;68.97;39.13;;;5.20;99.90;;;;;;7371923;19;20025;-82
2023/11/12 01:53:16;;;;;;;69.18;38.13;;;5.20;99.90;;;;;;7376324;19;20018;-82
2023/11/12 01:55:45;;;;;;;71.55;40.47;;;5.30;99.90;;;;;;7375600;19;20019;-82
2023/11/12 01:58:14;;;;;;;62.42;36.25;;;5.20;99.90;;;;;;7371084;19;20463;-82
2023/11/12 02:00:41;;;;;;;62.83;36.13;;;5.20;99.90;;;;;;7374257;19;20026;-82
2023/11/12 02:03:15;;;;;;;66.72;39.58;;;5.20;99.90;;;;;;7374980;19;20014;-82
2023/11/12 02:05:42;;;;;;;68.95;38.63;;;5.30;99.90;;;;;;7375517;19;20023;-82
2023/11/12 02:08:09;;;;;;;77.97;39.85;;;5.20;99.90;;;;;;7376182;19;20516;-82
2023/11/12 02:10:36;;;;;;;61.42;37.65;;;5.30;99.90;;;;;;7374759;19;20839;-82
2023/11/12 02:13:07;;;;;;;56.50;35.90;;;5.20;99.90;;;;;;7377454;19;20022;-82
2023/11/12 02:15:34;;;;;;;68.95;38.60;;;5.20;99.90;;;;;;7376432;19;20666;-82
2023/11/12 02:18:00;;;;;;;70.72;39.40;;;5.20;99.90;;;;;;7375543;19;20025;-82
2023/11/12 02:20:27;;;;;;;80.90;40.95;;;5.10;99.90;;;;;;7375196;19;20483;-82
2023/11/12 02:22:54;;;;;;;72.95;41.03;;;5.10;99.90;;;;;;7374286;19;20114;-82
2023/11/12 02:25:21;;;;;;;60.22;34.45;;;5.10;99.90;;;;;;7376481;19;20015;-83
2023/11/12 02:27:48;;;;;;;68.75;39.45;;;5.10;99.90;;;;;;7370606;19;20054;-81
2023/11/12 02:30:15;;;;;;;59.75;34.75;;;5.00;99.90;;;;;;7373267;19;20768;-82
2023/11/12 02:32:42;;;;;;;62.28;36.38;;;5.00;99.90;;;;;;7371900;19;20011;-82
2023/11/12 02:35:09;;;;;;;52.72;33.72;;;5.00;99.90;;;;;;7376398;19;20019;-82
2023/11/12 02:37:35;;;;;;;64.18;38.60;;;5.10;99.90;;;;;;7373036;19;20120;-82
2023/11/12 02:40:03;;;;;;;63.35;37.08;;;5.00;99.90;;;;;;7376224;19;20015;-82
2023/11/12 02:42:30;;;;;;;63.92;37.70;;;5.10;99.90;;;;;;7371276;19;20033;-82
2023/11/12 02:44:57;;;;;;;61.50;36.78;;;5.10;99.90;;;;;;7374801;19;20033;-82
2023/11/12 02:47:23;;;;;;;67.85;37.67;;;5.00;99.90;;;;;;7371664;19;20027;-82
2023/11/12 02:50:20;;;;;;;60.95;36.95;;;5.00;99.90;;;;;;7374650;19;20363;-82
2023/11/12 02:52:49;;;;;;;61.22;36.55;;;4.90;99.90;;;;;;7374903;19;20076;-82
2023/11/12 02:55:16;;;;;;;67.03;37.88;;;4.80;99.90;;;;;;7375000;19;20040;-82
2023/11/12 02:57:47;;;;;;;68.90;36.90;;;4.70;99.90;;;;;;7374909;19;20369;-81
2023/11/12 03:00:14;;;;;;;58.83;36.30;;;4.70;99.90;;;;;;7373132;19;20030;-83
2023/11/12 03:02:41;;;;;;;64.45;37.78;;;4.50;99.90;;;;;;7371609;19;20548;-82
2023/11/12 03:05:09;;;;;;;60.97;34.58;;;4.60;99.90;;;;;;7373244;19;20040;-83
2023/11/12 03:07:35;;;;;;;66.18;37.65;;;4.50;99.90;;;;;;7369912;19;20018;-82
2023/11/12 03:10:03;;;;;;;60.17;36.20;;;4.50;99.90;;;;;;7373463;19;20018;-82
2023/11/12 03:12:29;;;;;;;49.35;32.55;;;4.40;99.90;;;;;;7373104;19;20018;-82
2023/11/12 03:14:56;;;;;;;65.28;38.25;;;4.40;99.90;;;;;;7370282;19;20097;-82
2023/11/12 03:17:22;;;;;;;62.97;38.05;;;4.40;99.90;;;;;;7375009;19;20019;-81
2023/11/12 03:19:50;;;;;;;58.28;36.60;;;4.40;99.90;;;;;;7370369;19;20030;-82
2023/11/12 03:22:17;;;;;;;68.38;38.60;;;4.30;99.90;;;;;;7374313;19;20018;-82
2023/11/12 03:24:46;;;;;;;64.78;37.38;;;4.40;99.90;;;;;;7368102;19;20014;-82
2023/11/12 03:27:12;;;;;;;68.20;38.60;;;4.40;99.90;;;;;;7371500;19;20019;-82
2023/11/12 03:29:38;;;;;;;82.38;42.10;;;4.50;99.90;;;;;;7369112;19;20094;-82
2023/11/12 03:32:05;;;;;;;63.25;37.65;;;4.50;99.90;;;;;;7366203;19;20642;-82
2023/11/12 03:34:31;;;;;;;66.85;40.10;;;4.60;99.90;;;;;;7367148;19;20022;-82
2023/11/12 03:36:58;;;;;;;68.13;40.78;;;4.70;99.90;;;;;;7373348;19;20018;-81
2023/11/12 03:39:24;;;;;;;95.28;44.20;;;4.70;99.90;;;;;;7372576;19;20026;-82
2023/11/12 03:41:51;;;;;;;84.53;46.45;;;4.70;99.90;;;;;;7370928;19;20025;-82
2023/11/12 03:44:18;;;;;;;70.68;40.65;;;4.80;99.90;;;;;;7375865;19;20030;-82
2023/11/12 03:46:44;;;;;;;89.40;43.38;;;4.80;99.90;;;;;;7370564;19;20019;-82
2023/11/12 03:49:10;;;;;;;97.00;44.80;;;4.80;99.90;;;;;;7374947;19;20050;-81
2023/11/12 03:51:37;;;;;;;82.50;43.78;;;4.80;99.90;;;;;;7369618;19;20529;-81
2023/11/12 03:54:04;;;;;;;84.57;42.22;;;4.80;99.90;;;;;;7372294;19;20391;-82
2023/11/12 03:56:31;;;;;;;91.18;44.42;;;4.80;99.90;;;;;;7368835;19;20022;-82
2023/11/12 03:58:58;;;;;;;65.20;38.58;;;4.80;99.90;;;;;;7371514;19;20029;-82
2023/11/12 04:01:25;;;;;;;82.93;41.67;;;4.80;99.90;;;;;;7374369;19;20025;-82
2023/11/12 04:03:51;;;;;;;69.25;39.22;;;4.80;99.90;;;;;;7374718;19;20010;-82
2023/11/12 04:06:19;;;;;;;71.28;38.40;;;4.70;99.90;;;;;;7372140;19;20019;-82
2023/11/12 04:08:45;;;;;;;67.75;38.72;;;4.70;99.90;;;;;;7374084;19;20026;-82
2023/11/12 04:11:12;;;;;;;83.35;40.15;;;4.70;99.90;;;;;;7371254;19;20019;-82
2023/11/12 04:13:38;;;;;;;90.57;42.97;;;4.60;99.90;;;;;;7370235;19;20022;-82
2023/11/12 04:16:06;;;;;;;81.32;39.85;;;4.60;99.90;;;;;;7369336;19;20487;-82
2023/11/12 04:18:32;;;;;;;94.15;42.00;;;4.50;99.90;;;;;;7372897;19;20036;-82
2023/11/12 04:20:59;;;;;;;77.15;39.55;;;4.40;99.90;;;;;;7369831;19;20045;-82
2023/11/12 04:23:25;;;;;;;73.07;39.88;;;4.30;99.90;;;;;;7370944;19;20018;-82
2023/11/12 04:25:52;;;;;;;70.10;36.38;;;4.30;99.90;;;;;;7371470;19;20022;-82
2023/11/12 04:28:19;;;;;;;57.67;35.28;;;4.30;99.90;;;;;;7371500;19;20019;-82
2023/11/12 04:30:46;;;;;;;53.08;32.33;;;4.20;99.90;;;;;;7370640;19;20491;-81
2023/11/12 04:33:12;;;;;;;65.70;33.92;;;4.10;99.90;;;;;;7371961;19;20022;-81
2023/11/12 04:35:39;;;;;;;86.93;40.13;;;4.00;99.90;;;;;;7368497;19;20774;-82
2023/11/12 04:38:05;;;;;;;74.18;38.58;;;4.00;99.90;;;;;;7371747;19;20026;-81
2023/11/12 04:40:32;;;;;;;88.65;40.17;;;3.90;99.90;;;;;;7364921;19;20025;-82
2023/11/12 04:42:58;;;;;;;63.78;34.80;;;3.90;99.90;;;;;;7368786;19;20022;-82
2023/11/12 04:45:24;;;;;;;65.13;37.83;;;3.80;99.90;;;;;;7371643;19;20018;-81
2023/11/12 04:47:51;;;;;;;110.18;43.28;;;3.80;99.90;;;;;;7366925;19;20014;-81
2023/11/12 04:50:20;;;;;;;99.03;41.10;;;3.80;99.90;;;;;;7370353;19;20018;-81
2023/11/12 04:52:47;;;;;;;137.95;46.25;;;3.90;99.90;;;;;;7368441;19;20491;-82
2023/11/12 04:55:13;;;;;;;133.55;42.00;;;3.90;99.90;;;;;;7371736;19;20018;-81
2023/11/12 04:57:39;;;;;;;281.05;53.53;;;3.90;99.90;;;;;;7369884;19;20450;-82
2023/11/12 05:00:06;;;;;;;346.67;58.33;;;4.00;99.90;;;;;;7370590;19;20074;-81
2023/11/12 05:02:33;;;;;;;240.50;48.75;;;4.00;99.90;;;;;;7369579;19;20018;-82
2023/11/12 05:04:59;;;;;;;480.90;78.13;;;4.10;99.90;;;;;;7371228;19;20018;-82
2023/11/12 05:07:26;;;;;;;502.38;83.57;;;4.20;99.90;;;;;;7368791;19;20018;-81
2023/11/12 05:09:52;;;;;;;366.85;62.72;;;4.20;99.90;;;;;;7371326;19;20019;-81
2023/11/12 05:12:21;;;;;;;551.72;86.15;;;4.30;99.90;;;;;;7371727;19;20030;-82
2023/11/12 05:14:48;;;;;;;319.25;60.38;;;4.30;99.90;;;;;;7373354;19;20023;-82
2023/11/12 05:17:14;;;;;;;361.13;68.65;;;4.40;99.90;;;;;;7371603;19;20021;-81
2023/11/12 05:19:40;;;;;;;427.50;72.55;;;4.40;99.90;;;;;;7369607;19;20379;-82
2023/11/12 05:22:07;;;;;;;342.38;63.42;;;4.50;99.90;;;;;;7368449;19;20022;-82
2023/11/12 05:24:36;;;;;;;303.30;60.22;;;4.50;99.90;;;;;;7369926;19;20536;-82
2023/11/12 05:27:02;;;;;;;354.70;66.25;;;4.50;99.90;;;;;;7368221;19;20494;-82
2023/11/12 05:29:28;;;;;;;369.02;70.38;;;4.40;99.90;;;;;;7369604;19;20057;-82
2023/11/12 05:31:56;;;;;;;330.55;58.80;;;4.50;99.90;;;;;;7366736;19;20038;-82
2023/11/12 05:34:22;;;;;;;356.42;61.28;;;4.60;99.90;;;;;;7368373;19;20030;-81
2023/11/12 05:36:48;;;;;;;320.88;61.60;;;4.60;99.90;;;;;;7367868;19;20615;-82
2023/11/12 05:39:15;;;;;;;345.90;64.78;;;4.60;99.90;;;;;;7370109;19;20025;-82
2023/11/12 05:41:41;;;;;;;267.23;58.10;;;4.60;99.90;;;;;;7366037;19;20035;-82
2023/11/12 05:44:08;;;;;;;398.58;73.35;;;4.60;99.90;;;;;;7369304;19;20019;-82
2023/11/12 05:46:34;;;;;;;293.45;61.88;;;4.70;99.90;;;;;;7366913;19;20042;-82
2023/11/12 05:49:00;;;;;;;413.23;75.28;;;4.70;99.90;;;;;;7370855;19;20023;-82
2023/11/12 05:51:27;;;;;;;273.27;61.05;;;4.70;99.90;;;;;;7370754;19;20011;-82
2023/11/12 05:53:53;;;;;;;267.48;59.17;;;4.70;99.90;;;;;;7370699;19;20090;-82
2023/11/12 05:56:19;;;;;;;260.50;61.67;;;4.70;99.90;;;;;;7368653;19;20365;-82
2023/11/12 05:58:46;;;;;;;202.38;54.30;;;4.80;99.90;;;;;;7371170;19;20018;-82
2023/11/12 06:01:12;;;;;;;276.90;64.22;;;4.70;99.90;;;;;;7370948;19;20011;-82
2023/11/12 06:03:38;;;;;;;257.10;62.92;;;4.80;99.90;;;;;;7368421;19;20015;-82
2023/11/12 06:06:05;;;;;;;230.32;56.85;;;4.70;99.90;;;;;;7368247;19;20018;-82
2023/11/12 06:08:32;;;;;;;269.05;61.30;;;4.70;99.90;;;;;;7370664;19;20082;-82
2023/11/12 06:11:00;;;;;;;217.40;54.85;;;4.70;99.90;;;;;;7368384;19;20019;-82
2023/11/12 06:13:26;;;;;;;260.20;58.92;;;4.70;99.90;;;;;;7368758;19;20057;-82
2023/11/12 06:15:53;;;;;;;316.77;64.88;;;4.70;99.90;;;;;;7367334;19;20018;-82
2023/11/12 06:18:22;;;;;;;263.35;60.30;;;4.70;99.90;;;;;;7370639;19;20047;-85
2023/11/12 06:20:48;;;;;;;258.25;57.15;;;4.70;99.90;;;;;;7367252;19;20022;-84
2023/11/12 06:23:17;;;;;;;238.68;53.70;;;4.70;99.90;;;;;;7365800;19;20019;-76
2023/11/12 06:25:44;;;;;;;262.00;58.88;;;4.70;99.90;;;;;;7368319;19;20383;-77
2023/11/12 06:28:10;;;;;;;233.90;55.08;;;4.70;99.90;;;;;;7370330;19;20493;-76
2023/11/12 06:30:37;;;;;;;337.67;68.05;;;4.70;99.90;;;;;;7367780;19;20010;-76
2023/11/12 06:33:03;;;;;;;244.93;56.20;;;4.70;99.90;;;;;;7366803;19;20033;-76
2023/11/12 06:35:29;;;;;;;247.70;54.92;;;4.70;99.90;;;;;;7365411;19;20043;-77
2023/11/12 06:37:55;;;;;;;383.45;73.43;;;4.70;99.90;;;;;;7373130;19;20053;-74
2023/11/12 06:40:22;;;;;;;258.58;57.47;;;4.70;99.90;;;;;;7373964;19;20011;-74
2023/11/12 06:42:48;;;;;;;240.80;56.78;;;4.70;99.90;;;;;;7371795;19;20015;-77
2023/11/12 06:45:19;;;;;;;217.15;56.10;;;4.70;99.90;;;;;;7371195;19;20019;-75
2023/11/12 06:47:46;;;;;;;271.92;61.20;;;4.70;99.90;;;;;;7369202;19;20029;-75
2023/11/12 06:50:12;;;;;;;285.70;60.03;;;4.70;99.90;;;;;;7374533;19;20783;-75
2023/11/12 06:52:38;;;;;;;213.60;54.65;;;4.80;99.90;;;;;;7371337;19;20041;-75
2023/11/12 06:55:05;;;;;;;133.43;41.60;;;4.80;99.90;;;;;;7373789;19;20015;-77
2023/11/12 06:57:33;;;;;;;182.63;46.92;;;4.80;99.90;;;;;;7365477;19;20086;-76
2023/11/12 07:00:00;;;;;;;206.63;53.55;;;4.90;99.90;;;;;;7370168;19;20031;-78
2023/11/12 07:02:26;;;;;;;122.18;39.75;;;4.90;99.90;;;;;;7373348;19;20022;-77
2023/11/12 07:04:53;;;;;;;135.82;45.15;;;5.00;99.90;;;;;;7370543;19;20030;-76
2023/11/12 07:07:20;;;;;;;183.52;119.45;;;5.00;99.90;;;;;;7372527;19;20022;-76
2023/11/12 07:09:47;;;;;;;182.77;91.07;;;5.00;99.90;;;;;;7370791;19;20066;-76
2023/11/12 07:12:14;;;;;;;253.13;66.93;;;5.10;99.90;;;;;;7374683;19;20022;-77
2023/11/12 07:14:41;;;;;;;160.43;53.80;;;5.10;99.90;;;;;;7371061;19;20050;-77
2023/11/12 07:17:08;;;;;;;183.05;52.63;;;5.10;99.90;;;;;;7370384;19;20064;-76
2023/11/12 07:19:34;;;;;;;123.22;45.65;;;5.00;99.90;;;;;;7369521;19;20082;-75
2023/11/12 07:22:00;;;;;;;103.47;41.75;;;5.00;99.90;;;;;;7370137;19;20090;-76
2023/11/12 07:24:26;;;;;;;129.40;46.17;;;5.00;99.90;;;;;;7369251;19;20354;-75
2023/11/12 07:26:53;;;;;;;209.00;52.38;;;5.10;99.90;;;;;;7370837;19;20090;-75
2023/11/12 07:29:19;;;;;;;289.02;56.30;;;5.10;99.90;;;;;;7367704;19;20032;-76
2023/11/12 07:31:45;;;;;;;184.20;44.67;;;5.10;99.90;;;;;;7368625;19;20490;-76
2023/11/12 07:34:12;;;;;;;357.73;66.20;;;5.10;99.90;;;;;;7373541;19;20022;-76
2023/11/12 07:36:38;;;;;;;142.50;38.72;;;5.20;99.90;;;;;;7369032;19;20015;-76
2023/11/12 07:39:04;;;;;;;365.77;134.23;;;5.20;99.90;;;;;;7371658;19;20023;-76
2023/11/12 07:41:35;;;;;;;237.98;86.38;;;5.20;99.90;;;;;;7367608;19;20014;-76
2023/11/12 07:44:02;;;;;;;346.38;66.30;;;5.20;99.90;;;;;;7373132;19;20032;-76
2023/11/12 07:46:28;;;;;;;290.88;61.08;;;5.20;99.90;;;;;;7367750;19;20018;-76
2023/11/12 07:48:55;;;;;;;365.83;64.78;;;5.20;99.90;;;;;;7369418;19;20018;-76
2023/11/12 07:51:22;;;;;;;348.45;62.92;;;5.20;99.90;;;;;;7368085;19;20039;-76
2023/11/12 07:53:48;;;;;;;271.48;55.25;;;5.30;99.90;;;;;;7373098;19;20022;-76
2023/11/12 07:56:16;;;;;;;301.60;62.97;;;5.40;99.90;;;;;;7364609;19;20022;-76
2023/11/12 07:58:42;;;;;;;281.33;58.00;;;5.30;99.90;;;;;;7373700;19;20043;-77
2023/11/12 08:01:12;;;;;;;145.30;41.78;;;5.40;99.90;;;;;;7368894;19;20388;-77
2023/11/12 08:03:38;;;;;;;376.35;68.32;;;5.50;99.90;;;;;;7371558;19;20113;-77
2023/11/12 08:06:07;;;;;;;164.75;43.80;;;5.50;99.90;;;;;;7366624;19;20024;-76
2023/11/12 08:08:33;;;;;;;184.52;47.50;;;5.60;99.90;;;;;;7370307;19;20026;-76
2023/11/12 08:11:01;;;;;;;85.47;31.60;;;5.80;99.90;;;;;;7369904;19;20849;-76
2023/11/12 08:13:27;;;;;;;256.38;54.30;;;5.80;99.90;;;;;;7369603;19;20014;-76
2023/11/12 08:15:54;;;;;;;231.27;77.57;;;5.80;99.90;;;;;;7369493;19;20023;-76
2023/11/12 08:18:20;;;;;;;193.88;54.38;;;5.80;99.90;;;;;;7370285;19;20026;-76
2023/11/12 08:20:46;;;;;;;142.25;76.93;;;5.80;99.90;;;;;;7368537;19;20018;-76
2023/11/12 08:23:12;;;;;;;176.02;58.17;;;5.90;99.90;;;;;;7368844;19;20054;-76
2023/11/12 08:25:39;;;;;;;118.13;49.38;;;6.00;99.90;;;;;;7368742;19;20086;-76
2023/11/12 08:28:05;;;;;;;214.60;51.83;;;6.00;99.90;;;;;;7364874;19;20905;-79
2023/11/12 08:30:31;;;;;;;146.93;48.55;;;6.10;99.90;;;;;;7370401;19;20026;-76
2023/11/12 08:32:58;;;;;;;119.13;42.28;;;6.00;99.90;;;;;;7369113;19;20018;-76
2023/11/12 08:35:26;;;;;;;252.52;57.42;;;6.10;99.90;;;;;;7371847;19;20527;-76
2023/11/12 08:37:52;;;;;;;270.98;59.65;;;6.20;99.90;;;;;;7363931;19;20134;-77
2023/11/12 08:40:18;;;;;;;186.90;49.95;;;6.10;99.90;;;;;;7368072;19;20068;-77
2023/11/12 08:42:45;;;;;;;265.20;61.13;;;6.20;99.90;;;;;;7365804;19;20037;-76
2023/11/12 08:45:12;;;;;;;223.77;57.25;;;6.30;99.90;;;;;;7368176;19;20022;-76
2023/11/12 08:47:39;;;;;;;252.32;58.85;;;6.30;99.90;;;;;;7367132;19;20018;-77
2023/11/12 08:50:06;;;;;;;198.65;51.53;;;6.30;99.90;;;;;;7366827;19;20019;-77
2023/11/12 08:52:32;;;;;;;186.43;52.65;;;6.30;99.90;;;;;;7370537;19;20050;-77
2023/11/12 08:54:59;;;;;;;148.68;55.50;;;6.40;99.90;;;;;;7368563;19;20023;-77
2023/11/12 08:57:26;;;;;;;217.02;84.78;;;6.40;99.90;;;;;;7368042;19;20605;-77
2023/11/12 08:59:53;;;;;;;183.80;100.60;;;6.40;99.90;;;;;;7366712;19;20014;-77
2023/11/12 09:02:21;;;;;;;177.45;53.90;;;6.50;99.90;;;;;;7369420;19;20086;-77
2023/11/12 09:04:47;;;;;;;132.07;52.65;;;6.60;99.90;;;;;;7365494;19;20092;-77
2023/11/12 09:07:13;;;;;;;161.40;51.40;;;6.80;99.90;;;;;;7361428;19;20019;-77
2023/11/12 09:09:40;;;;;;;140.93;45.38;;;6.80;99.90;;;;;;7366941;19;20098;-77
2023/11/12 09:12:07;;;;;;;196.60;50.75;;;6.80;99.90;;;;;;7367630;19;20010;-77
2023/11/12 09:14:33;;;;;;;166.02;48.95;;;6.80;99.90;;;;;;7368927;19;20014;-77
2023/11/12 09:17:00;;;;;;;112.10;49.63;;;6.80;99.90;;;;;;7366903;19;20068;-76
2023/11/12 09:19:27;;;;;;;91.22;33.70;;;6.90;99.90;;;;;;7366204;19;20505;-76
2023/11/12 09:21:53;;;;;;;118.28;38.95;;;6.90;99.90;;;;;;7365587;19;20037;-77
2023/11/12 09:24:22;;;;;;;109.30;41.80;;;6.90;99.90;;;;;;7369632;19;20034;-77
2023/11/12 09:26:49;;;;;;;88.50;39.63;;;6.90;99.90;;;;;;7366096;19;21300;-77
2023/11/12 09:29:15;;;;;;;87.40;36.13;;;6.90;99.90;;;;;;7370362;19;20014;-77
2023/11/12 09:31:42;;;;;;;63.55;32.22;;;6.90;99.90;;;;;;7366271;19;20015;-76
2023/11/12 09:34:08;;;;;;;91.68;37.22;;;6.80;99.90;;;;;;7366471;19;20049;-77
2023/11/12 09:36:34;;;;;;;73.57;33.95;;;6.90;99.90;;;;;;7363358;19;20022;-76
2023/11/12 09:39:03;;;;;;;61.03;31.67;;;6.90;99.90;;;;;;7367911;19;20022;-77
2023/11/12 09:41:31;;;;;;;78.72;35.28;;;6.90;99.90;;;;;;7364189;19;20026;-77
2023/11/12 09:44:03;;;;;;;51.03;30.45;;;6.90;99.90;;;;;;7367234;19;20534;-77
2023/11/12 09:46:33;;;;;;;57.13;30.98;;;7.10;99.90;;;;;;7365583;19;20022;-77
2023/11/12 09:49:04;;;;;;;60.60;32.60;;;7.20;99.90;;;;;;7365785;19;20014;-76
2023/11/12 09:51:31;;;;;;;69.03;34.03;;;7.40;99.90;;;;;;7367437;19;20035;-77
2023/11/12 09:53:58;;;;;;;59.47;33.03;;;7.40;99.90;;;;;;7366631;19;20006;-78
2023/11/12 09:56:24;;;;;;;56.33;31.58;;;7.50;99.90;;;;;;7367482;19;20061;-77
2023/11/12 09:58:52;;;;;;;71.72;32.92;;;7.60;99.90;;;;;;7368741;19;20020;-77
2023/11/12 10:01:20;;;;;;;57.38;32.13;;;7.50;99.90;;;;;;7371116;19;20430;-77
2023/11/12 10:03:48;;;;;;;50.80;29.55;;;7.50;99.90;;;;;;7367830;19;20028;-77
2023/11/12 10:06:16;;;;;;;66.18;32.15;;;7.70;99.90;;;;;;7365344;19;20094;-77
2023/11/12 10:08:43;;;;;;;45.92;28.75;;;7.70;99.90;;;;;;7366701;19;20033;-77
2023/11/12 10:11:21;;;;;;;42.40;27.70;;;7.70;99.90;;;;;;7369048;19;20019;-76
2023/11/12 10:13:50;;;;;;;64.32;28.08;;;7.80;99.90;;;;;;7371893;19;20078;-77
2023/11/12 10:16:31;;;;;;;51.83;28.98;;;7.60;99.90;;;;;;7375078;19;20117;-77
2023/11/12 10:19:13;;;;;;;36.20;26.17;;;7.60;99.90;;;;;;7377301;19;20011;-77
2023/11/12 10:22:09;;;;;;;;;;;7.60;99.90;;;;;;7379802;19;20470;-78
2023/11/12 10:24:45;;;;;;;34.88;24.67;;;7.50;99.90;;;;;;7375911;19;19926;-77
2023/11/12 10:27:14;;;;;;;29.08;23.33;;;7.50;99.90;;;;;;7374431;19;20022;-77
2023/11/12 10:29:43;;;;;;;34.05;25.33;;;7.70;99.90;;;;;;7390566;19;20010;-81
2023/11/12 10:32:25;;;;;;;36.85;25.58;;;7.80;99.90;;;;;;7397745;19;20018;-84
2023/11/12 10:34:52;;;;;;;45.42;28.08;;;7.80;99.90;;;;;;7397769;19;20038;-83
2023/11/12 10:37:22;;;;;;;29.50;24.33;;;7.80;99.90;;;;;;7398243;19;20030;-83
2023/11/12 10:39:49;;;;;;;36.85;27.02;;;7.70;99.90;;;;;;7398394;19;20010;-83
2023/11/12 10:42:26;;;;;;;39.20;27.27;;;7.80;99.90;;;;;;7398595;19;20006;-83
2023/11/12 10:44:56;;;;;;;42.20;27.67;;;7.80;99.90;;;;;;7396855;19;20018;-83
2023/11/12 10:47:23;;;;;;;36.97;26.50;;;7.70;99.90;;;;;;7393705;19;20019;-83
2023/11/12 10:49:53;;;;;;;33.53;24.85;;;7.70;99.90;;;;;;7388856;19;20037;-76
2023/11/12 10:52:20;;;;;;;29.60;23.13;;;7.70;99.90;;;;;;7374472;19;20954;-77
2023/11/12 10:54:47;;;;;;;30.23;24.95;;;7.80;99.90;;;;;;7375053;19;20010;-76
2023/11/12 10:57:13;;;;;;;26.77;22.33;;;7.80;99.90;;;;;;7374656;19;20100;-77
2023/11/12 10:59:42;;;;;;;31.20;24.15;;;7.70;99.90;;;;;;7372431;19;20659;-77
2023/11/12 11:02:18;;;;;;;33.80;24.60;;;7.80;99.90;;;;;;7378871;19;21073;-77
2023/11/12 11:04:46;;;;;;;28.73;23.48;;;7.90;99.90;;;;;;7379334;19;20018;-77
2023/11/12 11:07:14;;;;;;;26.63;23.67;;;8.00;99.90;;;;;;7372128;19;20033;-77
2023/11/12 11:09:44;;;;;;;28.45;24.73;;;8.60;99.90;;;;;;7378958;19;20467;-77
2023/11/12 11:12:11;;;;;;;33.38;24.58;;;8.50;99.90;;;;;;7378427;19;20023;-78
2023/11/12 11:14:39;;;;;;;30.63;24.45;;;8.50;99.90;;;;;;7381701;19;20060;-77
2023/11/12 11:17:05;;;;;;;28.63;24.50;;;8.50;99.90;;;;;;7380470;19;20011;-77
2023/11/12 11:19:55;;;;;;;29.50;24.02;;;8.40;99.90;;;;;;7380221;19;20364;-78
2023/11/12 11:22:29;;;;;;;25.25;21.92;;;8.30;99.90;;;;;;7382274;19;20022;-77
2023/11/12 11:24:56;;;;;;;26.02;23.30;;;8.30;99.90;;;;;;7380788;19;20018;-79
2023/11/12 11:27:25;;;;;;;25.75;23.10;;;8.30;99.90;;;;;;7379315;19;20014;-77
2023/11/12 11:30:08;;;;;;;28.35;24.70;;;8.50;99.90;;;;;;7379664;19;20772;-78
2023/11/12 11:32:35;;;;;;;31.52;25.92;;;8.50;99.90;;;;;;7384729;19;20015;-78
2023/11/12 11:35:14;;;;;;;32.72;26.65;;;8.80;99.90;;;;;;7381366;19;20018;-77
2023/11/12 11:38:05;;;;;;;29.08;25.10;;;8.80;99.90;;;;;;7382323;19;20007;-77
2023/11/12 11:40:33;;;;;;;30.27;25.43;;;8.70;99.90;;;;;;7383694;19;20019;-77
2023/11/12 11:43:21;;;;;;;28.85;24.52;;;8.90;99.90;;;;;;7380237;19;20014;-77
2023/11/12 11:46:22;;;;;;;28.17;25.10;;;8.80;99.90;;;;;;7385271;19;20507;-78
2023/11/12 11:49:09;;;;;;;29.60;24.53;;;8.80;99.90;;;;;;7379423;19;20641;-77
2023/11/12 11:51:37;;;;;;;29.95;25.55;;;9.00;99.90;;;;;;7375333;19;21673;-77
2023/11/12 11:54:14;;;;;;;28.90;24.08;;;9.10;99.90;;;;;;7384835;19;20021;-77
2023/11/12 11:56:40;;;;;;;30.67;25.45;;;9.10;99.90;;;;;;7381511;19;20422;-77
2023/11/12 11:59:08;;;;;;;26.10;23.27;;;9.10;99.90;;;;;;7385822;19;20011;-78
2023/11/12 12:01:47;;;;;;;28.73;24.98;;;9.10;99.90;;;;;;7384784;19;20062;-79
2023/11/12 12:04:14;;;;;;;28.40;24.58;;;9.40;99.90;;;;;;7390771;19;20487;-78
2023/11/12 12:06:46;;;;;;;29.70;24.02;;;9.50;99.90;;;;;;7384679;19;20006;-78
2023/11/12 12:09:17;;;;;;;25.20;22.52;;;9.60;99.90;;;;;;7389568;19;20011;-78
2023/11/12 12:11:44;;;;;;;26.17;23.30;;;9.50;99.90;;;;;;7388639;19;20021;-79
2023/11/12 12:14:11;;;;;;;28.30;23.35;;;9.40;99.90;;;;;;7385429;19;20695;-78
2023/11/12 12:16:42;;;;;;;25.95;23.13;;;9.30;99.90;;;;;;7383763;19;20015;-79
2023/11/12 12:19:17;;;;;;;26.88;23.38;;;9.30;99.90;;;;;;7383985;19;20019;-79
2023/11/12 12:21:51;;;;;;;28.30;25.20;;;9.30;99.90;;;;;;7387332;19;20018;-79
2023/11/12 12:24:21;;;;;;;26.33;23.52;;;10.10;99.90;;;;;;7386673;19;20408;-79
2023/11/12 12:26:50;;;;;;;25.27;22.58;;;10.50;99.90;;;;;;7386434;19;20010;-78
2023/11/12 12:29:21;;;;;;;26.90;24.05;;;10.60;99.90;;;;;;7378849;19;20280;-79
2023/11/12 12:31:53;;;;;;;25.67;22.90;;;10.20;99.90;;;;;;7371328;19;20758;-77
2023/11/12 12:34:21;;;;;;;27.60;24.70;;;9.80;99.90;;;;;;7372347;19;20011;-79
2023/11/12 12:36:59;;;;;;;27.88;24.85;;;9.50;99.90;;;;;;7377791;19;20021;-78
2023/11/12 12:39:26;;;;;;;29.65;25.45;;;9.20;99.90;;;;;;7368337;19;20011;-78
2023/11/12 12:41:58;;;;;;;32.88;27.77;;;9.00;99.90;;;;;;7364472;19;20023;-78
2023/11/12 12:44:27;;;;;;;29.60;26.40;;;8.90;99.90;;;;;;7366541;19;20124;-77
2023/11/12 12:46:54;;;;;;;30.67;26.52;;;9.00;99.90;;;;;;7371489;19;20058;-80